Time;durP1;ratioP1;P1;durP2;ratioP2;P2;SDS_P1;SDS_P2;PMS_P1;PMS_P2;Temp;Humidity;BMP_temperature;BMP_pressure;BME280_temperature;BME280_humidity;BME280_pressure;Samples;Min_cycle;Max_cycle;Signal;HPM_P1;HPM_P2
2022/08/18 00:00:46;;;;;;;11.18;9.30;;;;;;;;;;5024983;28;20147;-74
2022/08/18 00:03:11;;;;;;;12.95;10.40;;;;;;;;;;5024940;28;20048;-73
2022/08/18 00:05:37;;;;;;;11.57;9.32;;;;;;;;;;5025689;28;20500;-76
2022/08/18 00:08:03;;;;;;;10.25;8.98;;;;;;;;;;5026469;28;20033;-72
2022/08/18 00:10:28;;;;;;;9.73;8.82;;;;;;;;;;5025032;28;20021;-73
2022/08/18 00:12:54;;;;;;;9.35;8.45;;;;;;;;;;5023884;28;20399;-73
2022/08/18 00:15:20;;;;;;;10.43;9.32;;;;;;;;;;5024002;28;20021;-74
2022/08/18 00:17:45;;;;;;;15.10;10.52;;;;;;;;;;5006434;28;20033;-72
2022/08/18 00:20:15;;;;;;;12.63;10.35;;;;;;;;;;5024292;28;20025;-73
2022/08/18 00:22:40;;;;;;;14.30;11.55;;;;;;;;;;5024069;28;20358;-74
2022/08/18 00:25:08;;;;;;;16.88;11.35;;;;;;;;;;5023067;28;20048;-72
2022/08/18 00:27:36;;;;;;;24.63;14.73;;;;;;;;;;5023953;28;20045;-74
2022/08/18 00:30:03;;;;;;;19.88;12.68;;;;;;;;;;5022712;28;20029;-73
2022/08/18 00:32:32;;;;;;;24.17;15.52;;;;;;;;;;5023699;28;20032;-74
2022/08/18 00:34:57;;;;;;;;;;;;;;;;;;5023559;28;20044;-72
2022/08/18 00:37:23;;;;;;;21.57;13.73;;;;;;;;;;5023422;28;19913;-73
2022/08/18 00:39:52;;;;;;;20.45;14.20;;;;;;;;;;5023542;28;20351;-73
2022/08/18 00:42:22;;;;;;;23.45;15.57;;;;;;;;;;5023898;28;20103;-72
2022/08/18 00:44:48;;;;;;;15.77;11.65;;;;;;;;;;5022973;28;20095;-72
2022/08/18 00:47:13;;;;;;;20.35;15.55;;;;;;;;;;5024201;28;20032;-73
2022/08/18 00:49:40;;;;;;;17.35;13.15;;;;;;;;;;5023689;28;20388;-77
2022/08/18 00:52:05;;;;;;;12.80;11.48;;;;;;;;;;5024470;28;20346;-72
2022/08/18 00:54:32;;;;;;;13.77;10.73;;;;;;;;;;5003543;28;20447;-74
2022/08/18 00:56:59;;;;;;;10.25;9.20;;;;;;;;;;5022083;28;20076;-73
2022/08/18 00:59:47;;;;;;;11.18;10.07;;;;;;;;;;5023190;28;20029;-75
2022/08/18 01:02:25;;;;;;;12.25;10.73;;;;;;;;;;5022657;28;20033;-73
2022/08/18 01:04:50;;;;;;;12.70;11.05;;;;;;;;;;5022725;28;20108;-74
2022/08/18 01:07:20;;;;;;;9.60;8.57;;;;;;;;;;5022552;28;20104;-76
2022/08/18 01:09:50;;;;;;;8.85;7.88;;;;;;;;;;5021992;28;20021;-75
2022/08/18 01:12:15;;;;;;;;;;;;;;;;;;5025634;28;20040;-72
2022/08/18 01:14:40;;;;;;;9.90;9.00;;;;;;;;;;5023972;28;19921;-71
2022/08/18 01:22:34;;;;;;;11.40;9.90;;;;;;;;;;5021878;28;20052;-74
2022/08/18 01:27:44;;;;;;;11.63;10.43;;;;;;;;;;5025383;28;20116;-71
2022/08/18 01:30:11;;;;;;;11.25;9.90;;;;;;;;;;5021058;28;20428;-73
2022/08/18 01:32:37;;;;;;;10.85;9.77;;;;;;;;;;5021388;28;20075;-73
2022/08/18 01:35:04;;;;;;;10.48;9.57;;;;;;;;;;5024613;28;20392;-73
2022/08/18 01:37:29;;;;;;;8.50;7.80;;;;;;;;;;5023813;28;20032;-72
2022/08/18 01:39:54;;;;;;;9.10;8.20;;;;;;;;;;5027836;28;20060;-71
2022/08/18 01:42:20;;;;;;;9.15;8.35;;;;;;;;;;5025653;28;20051;-71
2022/08/18 01:44:47;;;;;;;9.80;8.82;;;;;;;;;;5026411;28;20030;-72
2022/08/18 01:47:13;;;;;;;9.77;8.68;;;;;;;;;;5027800;28;20424;-73
2022/08/18 01:49:40;;;;;;;10.43;9.32;;;;;;;;;;5025655;28;20122;-73
2022/08/18 01:52:06;;;;;;;9.68;8.88;;;;;;;;;;5026738;28;20034;-77
2022/08/18 01:54:32;;;;;;;9.40;8.52;;;;;;;;;;5027408;28;20047;-72
2022/08/18 01:56:57;;;;;;;10.65;9.55;;;;;;;;;;5026278;28;20071;-73
2022/08/18 01:59:23;;;;;;;10.40;9.35;;;;;;;;;;5027629;28;20433;-72
2022/08/18 02:01:48;;;;;;;10.80;9.70;;;;;;;;;;5027489;28;20036;-73
2022/08/18 02:04:15;;;;;;;11.45;9.00;;;;;;;;;;5026561;28;20619;-73
2022/08/18 02:06:40;;;;;;;11.23;9.35;;;;;;;;;;5025693;28;20121;-71
2022/08/18 02:09:06;;;;;;;12.23;10.93;;;;;;;;;;5027856;28;20100;-76
2022/08/18 02:11:31;;;;;;;11.85;10.65;;;;;;;;;;5025631;28;21180;-73
2022/08/18 02:13:57;;;;;;;9.95;9.02;;;;;;;;;;5026722;28;20086;-73
2022/08/18 02:16:23;;;;;;;9.82;8.93;;;;;;;;;;5025631;28;20029;-73
2022/08/18 02:18:48;;;;;;;11.43;9.77;;;;;;;;;;5024314;28;20117;-74
2022/08/18 02:21:17;;;;;;;9.40;8.57;;;;;;;;;;5025101;28;20021;-71
2022/08/18 02:23:43;;;;;;;9.55;8.65;;;;;;;;;;5007733;28;20330;-72
2022/08/18 02:26:10;;;;;;;15.13;9.02;;;;;;;;;;5025504;28;20120;-72
2022/08/18 02:28:35;;;;;;;10.15;9.13;;;;;;;;;;5009242;28;20125;-73
2022/08/18 02:31:05;;;;;;;10.52;9.52;;;;;;;;;;5025838;28;20112;-71
2022/08/18 02:33:30;;;;;;;;;;;;;;;;;;5026753;28;20037;-72
2022/08/18 02:35:55;;;;;;;10.37;9.37;;;;;;;;;;5026048;28;19908;-72
2022/08/18 02:38:20;;;;;;;10.13;9.15;;;;;;;;;;5025919;28;20087;-75
2022/08/18 02:40:46;;;;;;;13.00;10.02;;;;;;;;;;5023857;28;20044;-75
2022/08/18 02:43:11;;;;;;;9.75;8.85;;;;;;;;;;5025623;28;20040;-73
2022/08/18 02:45:38;;;;;;;9.07;8.27;;;;;;;;;;5024938;28;20025;-76
2022/08/18 02:48:04;;;;;;;9.18;8.27;;;;;;;;;;5024013;28;20033;-72
2022/08/18 02:50:29;;;;;;;9.75;8.85;;;;;;;;;;5023856;28;20044;-72
2022/08/18 02:52:55;;;;;;;9.18;8.35;;;;;;;;;;5026210;28;20034;-73
2022/08/18 02:55:21;;;;;;;9.77;8.63;;;;;;;;;;5026245;28;20037;-72
2022/08/18 02:57:47;;;;;;;9.48;8.55;;;;;;;;;;5024951;28;20084;-76
2022/08/18 03:00:14;;;;;;;9.45;8.55;;;;;;;;;;5025634;28;20025;-72
2022/08/18 03:02:43;;;;;;;9.65;8.70;;;;;;;;;;5023717;28;20032;-72
2022/08/18 03:05:09;;;;;;;9.63;8.35;;;;;;;;;;5026147;28;20033;-73
2022/08/18 03:07:34;;;;;;;9.65;8.80;;;;;;;;;;5023060;28;20048;-72
2022/08/18 03:09:59;;;;;;;9.27;8.40;;;;;;;;;;5025839;28;20036;-73
2022/08/18 03:12:25;;;;;;;10.40;9.35;;;;;;;;;;5024703;28;20021;-73
2022/08/18 03:14:50;;;;;;;10.10;9.10;;;;;;;;;;5027112;28;20037;-72
2022/08/18 03:17:15;;;;;;;9.75;8.95;;;;;;;;;;5024221;28;20033;-72
2022/08/18 03:19:43;;;;;;;8.88;8.13;;;;;;;;;;5024861;28;20070;-75
2022/08/18 03:22:09;;;;;;;8.88;8.13;;;;;;;;;;5023598;28;20034;-73
2022/08/18 03:24:35;;;;;;;8.50;7.70;;;;;;;;;;5023979;28;20034;-73
2022/08/18 03:27:03;;;;;;;9.27;8.32;;;;;;;;;;5025451;28;20083;-73
2022/08/18 03:29:28;;;;;;;10.82;9.65;;;;;;;;;;5023455;28;20452;-73
2022/08/18 03:31:54;;;;;;;10.88;9.80;;;;;;;;;;5026026;28;20056;-72
2022/08/18 03:34:19;;;;;;;9.80;8.80;;;;;;;;;;5024057;28;20084;-72
2022/08/18 03:36:46;;;;;;;9.32;8.48;;;;;;;;;;5023222;28;20033;-73
2022/08/18 03:39:12;;;;;;;9.85;8.90;;;;;;;;;;5026411;28;20368;-73
2022/08/18 03:41:42;;;;;;;10.25;8.55;;;;;;;;;;5022316;28;20053;-73
2022/08/18 03:44:07;;;;;;;8.65;7.95;;;;;;;;;;5022485;28;20037;-74
2022/08/18 03:46:33;;;;;;;8.88;8.18;;;;;;;;;;5025544;28;20025;-74
2022/08/18 03:48:59;;;;;;;10.38;8.45;;;;;;;;;;5026482;28;20025;-73
2022/08/18 03:51:26;;;;;;;9.85;8.80;;;;;;;;;;5023263;28;20027;-73
2022/08/18 03:53:53;;;;;;;11.70;9.10;;;;;;;;;;5023913;28;20408;-72
2022/08/18 03:56:20;;;;;;;10.43;9.38;;;;;;;;;;5026117;28;20033;-75
2022/08/18 03:58:46;;;;;;;10.85;9.85;;;;;;;;;;5006756;28;20125;-73
2022/08/18 04:01:14;;;;;;;10.15;8.90;;;;;;;;;;5024806;28;20037;-73
2022/08/18 04:03:41;;;;;;;9.30;8.45;;;;;;;;;;5023983;28;20091;-72
2022/08/18 04:06:06;;;;;;;8.90;8.00;;;;;;;;;;5024267;28;20033;-73
2022/08/18 04:08:31;;;;;;;9.57;8.77;;;;;;;;;;5024775;28;20022;-73
2022/08/18 04:10:57;;;;;;;12.98;8.70;;;;;;;;;;5023588;28;20429;-72
2022/08/18 04:13:23;;;;;;;10.75;9.75;;;;;;;;;;5023358;28;20060;-73
2022/08/18 04:15:48;;;;;;;10.00;8.98;;;;;;;;;;5024821;28;20640;-72
2022/08/18 04:18:13;;;;;;;9.77;8.82;;;;;;;;;;5025445;28;20460;-77
2022/08/18 04:20:39;;;;;;;9.40;8.45;;;;;;;;;;5021651;28;20029;-73
2022/08/18 04:23:04;;;;;;;13.50;9.35;;;;;;;;;;5023375;28;20029;-72
2022/08/18 04:25:31;;;;;;;9.85;8.57;;;;;;;;;;5022726;28;20037;-71
2022/08/18 04:27:59;;;;;;;12.68;9.02;;;;;;;;;;5024228;28;20018;-75
2022/08/18 04:30:25;;;;;;;9.45;8.60;;;;;;;;;;5022473;28;20029;-72
2022/08/18 04:32:50;;;;;;;10.73;8.50;;;;;;;;;;5023867;28;20518;-71
2022/08/18 04:35:16;;;;;;;10.70;8.45;;;;;;;;;;5023445;28;20083;-72
2022/08/18 04:37:42;;;;;;;9.55;8.45;;;;;;;;;;5025300;28;20025;-71
2022/08/18 04:40:09;;;;;;;14.00;8.95;;;;;;;;;;5022324;28;20552;-74
2022/08/18 04:42:34;;;;;;;10.15;9.32;;;;;;;;;;5022744;28;20049;-72
2022/08/18 04:44:59;;;;;;;9.85;8.95;;;;;;;;;;5022886;28;20412;-72
2022/08/18 04:47:25;;;;;;;9.90;8.05;;;;;;;;;;5022827;28;20037;-74
2022/08/18 04:49:50;;;;;;;9.60;8.55;;;;;;;;;;5022273;28;20452;-72
2022/08/18 04:55:00;;;;;;;13.45;8.75;;;;;;;;;;5022740;28;20372;-72
2022/08/18 04:57:26;;;;;;;10.13;8.60;;;;;;;;;;5023018;28;20028;-77
2022/08/18 04:59:52;;;;;;;10.27;9.30;;;;;;;;;;5021247;28;20025;-73
2022/08/18 05:02:18;;;;;;;10.23;9.07;;;;;;;;;;5022079;28;20068;-72
2022/08/18 05:04:46;;;;;;;9.50;8.27;;;;;;;;;;5023847;28;20504;-72
2022/08/18 05:07:14;;;;;;;10.93;8.80;;;;;;;;;;5023740;28;20034;-72
2022/08/18 05:09:43;;;;;;;12.38;9.60;;;;;;;;;;5022949;28;20246;-71
2022/08/18 05:12:11;;;;;;;11.67;10.30;;;;;;;;;;5022984;28;20061;-72
2022/08/18 05:14:36;;;;;;;12.27;9.68;;;;;;;;;;5026589;28;20451;-73
2022/08/18 05:17:02;;;;;;;11.02;9.90;;;;;;;;;;5026056;28;20033;-74
2022/08/18 05:19:29;;;;;;;10.43;9.30;;;;;;;;;;5009762;28;20030;-76
2022/08/18 05:21:56;;;;;;;9.85;8.93;;;;;;;;;;5029155;28;20467;-73
2022/08/18 05:24:24;;;;;;;10.55;9.65;;;;;;;;;;5026757;28;20087;-72
2022/08/18 05:26:50;;;;;;;12.10;9.50;;;;;;;;;;5027388;28;20040;-72
2022/08/18 05:29:15;;;;;;;9.30;8.60;;;;;;;;;;5026664;28;20112;-74
2022/08/18 05:31:41;;;;;;;12.73;9.23;;;;;;;;;;5026889;28;20116;-71
2022/08/18 05:34:07;;;;;;;9.68;8.77;;;;;;;;;;5028643;28;20037;-72
2022/08/18 05:36:32;;;;;;;12.90;9.80;;;;;;;;;;5026268;28;20021;-72
2022/08/18 05:39:16;;;;;;;10.05;9.05;;;;;;;;;;5027315;28;20060;-75
2022/08/18 05:41:43;;;;;;;10.18;8.70;;;;;;;;;;5026514;28;20049;-75
2022/08/18 05:44:12;;;;;;;9.70;8.85;;;;;;;;;;5027819;28;20383;-73
2022/08/18 05:46:37;;;;;;;12.43;8.70;;;;;;;;;;5026250;28;20425;-73
2022/08/18 05:49:03;;;;;;;9.02;8.25;;;;;;;;;;5024898;28;20278;-75
2022/08/18 05:51:32;;;;;;;9.80;7.90;;;;;;;;;;5026136;28;20083;-73
2022/08/18 05:56:46;;;;;;;8.50;7.68;;;;;;;;;;5024473;28;20491;-74
2022/08/18 05:59:31;;;;;;;10.00;8.00;;;;;;;;;;5026619;28;20022;-73
2022/08/18 06:02:11;;;;;;;8.45;7.55;;;;;;;;;;5027346;28;20033;-73
2022/08/18 06:04:46;;;;;;;9.40;7.55;;;;;;;;;;5025955;28;20098;-73
2022/08/18 06:07:17;;;;;;;9.15;7.82;;;;;;;;;;5027189;28;20113;-75
2022/08/18 06:09:48;;;;;;;8.07;7.38;;;;;;;;;;5025329;28;20148;-73
2022/08/18 06:12:34;;;;;;;8.05;7.22;;;;;;;;;;5027247;28;20352;-73
2022/08/18 06:15:06;;;;;;;7.60;6.82;;;;;;;;;;5025988;28;20057;-72
2022/08/18 06:17:48;;;;;;;9.23;8.35;;;;;;;;;;5025820;28;20039;-73
2022/08/18 06:20:27;;;;;;;7.10;6.43;;;;;;;;;;5025257;28;20033;-72
2022/08/18 06:23:02;;;;;;;7.32;6.47;;;;;;;;;;5025189;28;20112;-73
2022/08/18 06:25:44;;;;;;;7.57;6.90;;;;;;;;;;5024617;28;20029;-73
2022/08/18 06:28:14;;;;;;;9.48;7.53;;;;;;;;;;5025856;28;20269;-73
2022/08/18 06:30:46;;;;;;;8.07;6.05;;;;;;;;;;5026633;28;20081;-75
2022/08/18 06:33:17;;;;;;;8.00;7.20;;;;;;;;;;5025858;28;20965;-73
2022/08/18 06:35:50;;;;;;;7.25;6.20;;;;;;;;;;5025121;28;20116;-72
2022/08/18 06:38:40;;;;;;;7.18;6.45;;;;;;;;;;5025447;28;20036;-72
2022/08/18 06:41:08;;;;;;;11.43;8.88;;;;;;;;;;5025497;28;20033;-73
2022/08/18 06:43:34;;;;;;;7.30;6.60;;;;;;;;;;5026979;28;20821;-73
2022/08/18 06:46:01;;;;;;;8.02;6.72;;;;;;;;;;5023601;28;20500;-72
2022/08/18 06:48:44;;;;;;;8.35;7.55;;;;;;;;;;5026946;28;20047;-74
2022/08/18 06:51:11;;;;;;;10.10;9.10;;;;;;;;;;5027178;28;20037;-75
2022/08/18 06:53:55;;;;;;;9.07;8.25;;;;;;;;;;5006758;28;20429;-74
2022/08/18 06:56:25;;;;;;;7.00;6.30;;;;;;;;;;5025157;28;20033;-74
2022/08/18 06:58:54;;;;;;;7.15;5.45;;;;;;;;;;5027063;28;20456;-73
2022/08/18 07:01:20;;;;;;;6.38;5.40;;;;;;;;;;5024416;28;20034;-76
2022/08/18 07:03:53;;;;;;;7.15;5.60;;;;;;;;;;5025018;28;20464;-73
2022/08/18 07:06:19;;;;;;;7.70;6.30;;;;;;;;;;5027321;28;20034;-72
2022/08/18 07:08:45;;;;;;;5.72;5.18;;;;;;;;;;5025082;28;20084;-73
2022/08/18 07:11:16;;;;;;;6.82;5.57;;;;;;;;;;5009906;28;20065;-74
2022/08/18 07:13:43;;;;;;;5.35;4.85;;;;;;;;;;5026215;28;20041;-76
2022/08/18 07:16:16;;;;;;;6.93;6.32;;;;;;;;;;5026506;28;20033;-72
2022/08/18 07:18:42;;;;;;;6.57;5.88;;;;;;;;;;5025488;28;20029;-73
2022/08/18 07:21:08;;;;;;;25.42;22.92;;;;;;;;;;5024393;28;20121;-74
2022/08/18 07:23:33;;;;;;;9.68;8.75;;;;;;;;;;5024899;28;20033;-74
2022/08/18 07:26:00;;;;;;;7.45;6.70;;;;;;;;;;5025692;28;20106;-73
2022/08/18 07:28:27;;;;;;;7.88;7.18;;;;;;;;;;5023374;28;20437;-73
2022/08/18 07:31:04;;;;;;;6.28;5.78;;;;;;;;;;5025666;28;20029;-76
2022/08/18 07:33:30;;;;;;;6.15;5.55;;;;;;;;;;5023671;28;21105;-73
2022/08/18 07:36:02;;;;;;;6.22;5.63;;;;;;;;;;5022480;28;20033;-75
2022/08/18 07:38:33;;;;;;;5.65;5.13;;;;;;;;;;5022761;28;20067;-74
2022/08/18 07:41:07;;;;;;;42.63;37.83;;;;;;;;;;5025033;28;20479;-74
2022/08/18 07:43:40;;;;;;;23.83;21.42;;;;;;;;;;5025009;28;20029;-73
2022/08/18 07:46:16;;;;;;;8.07;7.35;;;;;;;;;;5025309;28;20094;-73
2022/08/18 07:48:42;;;;;;;5.65;4.90;;;;;;;;;;5023910;28;20459;-73
2022/08/18 07:51:17;;;;;;;5.32;4.35;;;;;;;;;;5023984;28;20057;-74
2022/08/18 07:54:01;;;;;;;6.07;4.47;;;;;;;;;;5025445;28;20108;-73
2022/08/18 07:56:41;;;;;;;7.72;5.50;;;;;;;;;;5023766;28;20038;-74
2022/08/18 07:59:25;;;;;;;6.63;4.65;;;;;;;;;;5025384;28;20037;-75
2022/08/18 08:02:04;;;;;;;5.13;4.53;;;;;;;;;;5022628;28;20144;-77
2022/08/18 08:04:29;;;;;;;;;;;;;;;;;;5024113;28;20107;-73
2022/08/18 08:07:08;;;;;;;6.73;4.47;;;;;;;;;;5023896;28;19952;-73
2022/08/18 08:09:45;;;;;;;4.90;4.50;;;;;;;;;;5024600;28;20033;-73
2022/08/18 08:12:29;;;;;;;4.95;4.10;;;;;;;;;;5022639;28;20021;-73
2022/08/18 08:15:04;;;;;;;5.57;4.40;;;;;;;;;;5023568;28;20022;-74
2022/08/18 08:17:32;;;;;;;4.68;3.60;;;;;;;;;;5023750;28;20032;-73
2022/08/18 08:20:00;;;;;;;8.52;4.10;;;;;;;;;;5024024;28;20072;-73
2022/08/18 08:22:25;;;;;;;5.80;3.80;;;;;;;;;;5024704;28;20429;-75
2022/08/18 08:24:54;;;;;;;5.35;4.78;;;;;;;;;;5024544;28;20044;-74
2022/08/18 08:27:19;;;;;;;5.75;4.15;;;;;;;;;;5024043;28;20158;-74
2022/08/18 08:30:03;;;;;;;5.05;4.05;;;;;;;;;;5024169;28;20448;-74
2022/08/18 08:32:55;;;;;;;4.25;3.63;;;;;;;;;;5023225;28;20087;-73
2022/08/18 08:35:34;;;;;;;4.72;3.60;;;;;;;;;;5020959;28;20045;-75
2022/08/18 08:38:01;;;;;;;8.18;3.78;;;;;;;;;;5022613;28;20024;-74
2022/08/18 08:40:31;;;;;;;4.72;3.60;;;;;;;;;;5022896;28;20488;-74
2022/08/18 08:42:57;;;;;;;4.20;3.80;;;;;;;;;;5024015;28;20033;-75
2022/08/18 08:45:25;;;;;;;4.60;3.75;;;;;;;;;;5022113;28;20487;-75
2022/08/18 08:47:56;;;;;;;4.90;3.35;;;;;;;;;;5024150;28;20033;-75
2022/08/18 08:50:25;;;;;;;3.83;3.50;;;;;;;;;;5025320;28;20033;-74
2022/08/18 08:52:57;;;;;;;4.13;3.22;;;;;;;;;;5023160;28;20099;-73
2022/08/18 08:55:25;;;;;;;4.85;4.07;;;;;;;;;;5023113;28;20049;-74
2022/08/18 08:58:09;;;;;;;4.82;4.25;;;;;;;;;;5021726;28;20033;-77
2022/08/18 09:00:35;;;;;;;4.00;3.58;;;;;;;;;;5022232;28;20029;-79
2022/08/18 09:03:04;;;;;;;4.20;3.55;;;;;;;;;;5024468;28;20044;-77
2022/08/18 09:05:42;;;;;;;4.00;3.67;;;;;;;;;;5023996;28;20044;-75
2022/08/18 09:08:27;;;;;;;3.78;3.47;;;;;;;;;;5022346;28;20029;-75
2022/08/18 09:11:05;;;;;;;4.22;3.92;;;;;;;;;;5022941;28;20456;-74
2022/08/18 09:13:48;;;;;;;5.20;3.15;;;;;;;;;;5022827;28;20017;-74
2022/08/18 09:16:37;;;;;;;3.53;2.95;;;;;;;;;;5025388;28;20060;-76
2022/08/18 09:19:21;;;;;;;3.90;3.60;;;;;;;;;;5022844;28;20049;-75
2022/08/18 09:22:02;;;;;;;3.70;3.03;;;;;;;;;;5022437;28;20464;-74
2022/08/18 09:24:30;;;;;;;4.82;3.70;;;;;;;;;;5022996;28;20040;-74
2022/08/18 09:27:01;;;;;;;6.20;3.67;;;;;;;;;;5025524;28;20061;-77
2022/08/18 09:29:36;;;;;;;7.88;3.75;;;;;;;;;;5023042;28;20349;-74
2022/08/18 09:32:19;;;;;;;6.40;3.35;;;;;;;;;;5023308;28;20029;-72
2022/08/18 09:34:50;;;;;;;5.20;3.85;;;;;;;;;;5020691;28;20104;-74
2022/08/18 09:37:38;;;;;;;5.10;4.25;;;;;;;;;;5021526;28;20123;-75
2022/08/18 09:43:06;;;;;;;6.75;5.05;;;;;;;;;;5023527;28;20068;-75
2022/08/18 09:45:32;;;;;;;4.55;3.78;;;;;;;;;;5020556;28;20036;-76
2022/08/18 09:48:09;;;;;;;3.90;3.50;;;;;;;;;;5021805;28;20458;-75
2022/08/18 09:50:36;;;;;;;6.57;3.53;;;;;;;;;;5023440;28;20083;-76
2022/08/18 09:53:31;;;;;;;6.43;3.00;;;;;;;;;;5022537;28;20065;-75
2022/08/18 09:55:57;;;;;;;4.47;2.83;;;;;;;;;;5021451;28;20048;-75
2022/08/18 09:58:25;;;;;;;4.20;3.80;;;;;;;;;;5025240;28;20432;-76
2022/08/18 10:01:09;;;;;;;7.22;3.42;;;;;;;;;;5025313;28;20026;-75
2022/08/18 10:03:34;;;;;;;5.38;3.38;;;;;;;;;;5025811;28;20038;-77
2022/08/18 10:06:03;;;;;;;4.25;3.03;;;;;;;;;;5026613;28;20425;-76
2022/08/18 10:08:37;;;;;;;3.30;3.00;;;;;;;;;;5028333;28;20060;-76
2022/08/18 10:11:11;;;;;;;3.20;2.90;;;;;;;;;;5026537;28;20025;-75
2022/08/18 10:14:00;;;;;;;3.72;3.28;;;;;;;;;;5025196;28;20037;-74
2022/08/18 10:16:32;;;;;;;4.05;3.10;;;;;;;;;;5019689;28;20076;-76
2022/08/18 10:19:11;;;;;;;3.53;2.50;;;;;;;;;;5024367;28;20083;-74
2022/08/18 10:21:57;;;;;;;6.75;3.20;;;;;;;;;;5026208;28;20040;-76
2022/08/18 10:24:27;;;;;;;3.70;3.40;;;;;;;;;;5025901;28;20115;-74
2022/08/18 10:26:52;;;;;;;6.05;3.45;;;;;;;;;;5026799;28;20021;-75
2022/08/18 10:29:33;;;;;;;3.45;3.15;;;;;;;;;;5026945;28;20092;-74
2022/08/18 10:31:58;;;;;;;3.90;3.60;;;;;;;;;;5026514;28;20036;-75
2022/08/18 10:34:38;;;;;;;4.90;2.85;;;;;;;;;;5027140;28;21113;-75
2022/08/18 10:37:15;;;;;;;8.43;3.47;;;;;;;;;;5026414;28;20449;-74
2022/08/18 10:39:41;;;;;;;3.17;2.88;;;;;;;;;;5024392;28;20324;-75
2022/08/18 10:42:13;;;;;;;3.17;2.88;;;;;;;;;;5023421;28;20457;-74
2022/08/18 10:44:46;;;;;;;3.85;3.28;;;;;;;;;;5024856;28;20443;-75
2022/08/18 10:47:22;;;;;;;6.32;3.45;;;;;;;;;;5027630;28;20040;-75
2022/08/18 10:49:49;;;;;;;3.65;3.22;;;;;;;;;;5025514;28;20075;-75
2022/08/18 10:52:23;;;;;;;3.20;2.67;;;;;;;;;;5025443;28;20026;-74
2022/08/18 10:54:55;;;;;;;6.15;3.70;;;;;;;;;;5025735;28;20041;-76
2022/08/18 10:57:26;;;;;;;10.15;3.83;;;;;;;;;;5023941;28;20104;-75
2022/08/18 11:00:12;;;;;;;12.25;3.85;;;;;;;;;;5026873;28;20026;-74
2022/08/18 11:02:54;;;;;;;5.20;3.40;;;;;;;;;;5025723;28;20044;-78
2022/08/18 11:05:23;;;;;;;3.22;2.92;;;;;;;;;;5024293;28;20033;-75
2022/08/18 11:07:53;;;;;;;4.45;3.60;;;;;;;;;;5025937;28;20033;-75
2022/08/18 11:10:20;;;;;;;5.70;3.45;;;;;;;;;;5024618;28;20064;-78
2022/08/18 11:12:58;;;;;;;3.60;3.08;;;;;;;;;;5005845;28;20124;-75
2022/08/18 11:15:42;;;;;;;4.22;3.38;;;;;;;;;;5024917;28;20047;-76
2022/08/18 11:18:31;;;;;;;3.85;3.40;;;;;;;;;;5025788;28;20045;-76
2022/08/18 11:21:15;;;;;;;5.05;3.60;;;;;;;;;;5023123;28;20108;-75
2022/08/18 11:23:40;;;;;;;3.60;3.22;;;;;;;;;;5024313;28;20026;-76
2022/08/18 11:26:15;;;;;;;5.00;3.60;;;;;;;;;;5028399;28;20025;-76
2022/08/18 11:28:40;;;;;;;3.90;3.58;;;;;;;;;;5025639;28;20476;-75
2022/08/18 11:31:06;;;;;;;4.07;3.20;;;;;;;;;;5025689;28;20068;-75
2022/08/18 11:33:31;;;;;;;4.20;3.40;;;;;;;;;;5026169;28;20029;-78
2022/08/18 11:35:58;;;;;;;3.45;3.03;;;;;;;;;;5025268;28;20025;-74
2022/08/18 11:38:25;;;;;;;6.32;3.45;;;;;;;;;;5024180;28;20021;-75
2022/08/18 11:40:53;;;;;;;4.72;3.50;;;;;;;;;;5025330;28;20053;-77
2022/08/18 11:43:23;;;;;;;3.60;3.25;;;;;;;;;;5024427;28;20053;-76
2022/08/18 11:45:51;;;;;;;5.32;3.65;;;;;;;;;;5022239;28;20037;-75
2022/08/18 11:48:20;;;;;;;3.15;2.85;;;;;;;;;;5008713;28;20391;-75
2022/08/18 11:50:45;;;;;;;5.00;3.55;;;;;;;;;;5024314;28;20474;-76
2022/08/18 11:53:13;;;;;;;4.27;3.40;;;;;;;;;;5024847;28;20037;-75
2022/08/18 11:55:38;;;;;;;4.93;3.40;;;;;;;;;;5024167;28;20282;-75
2022/08/18 11:58:05;;;;;;;9.48;2.90;;;;;;;;;;5024458;28;20036;-76
2022/08/18 12:00:41;;;;;;;12.88;6.72;;;;;;;;;;5024010;28;20037;-73
2022/08/18 12:03:14;;;;;;;13.70;12.23;;;;;;;;;;5024503;28;20148;-75
2022/08/18 12:05:52;;;;;;;5.47;4.97;;;;;;;;;;5025058;28;20178;-76
2022/08/18 12:08:24;;;;;;;4.93;3.55;;;;;;;;;;5023726;28;20478;-74
2022/08/18 12:11:00;;;;;;;3.83;3.15;;;;;;;;;;5023694;28;20026;-75
2022/08/18 12:13:25;;;;;;;7.47;3.53;;;;;;;;;;5024684;28;20083;-75
2022/08/18 12:16:07;;;;;;;4.07;3.10;;;;;;;;;;5023042;28;20542;-75
2022/08/18 12:18:32;;;;;;;4.60;2.88;;;;;;;;;;5024938;28;20104;-76
2022/08/18 12:20:58;;;;;;;5.70;2.80;;;;;;;;;;5023842;28;20093;-76
2022/08/18 12:23:23;;;;;;;2.75;2.55;;;;;;;;;;5022968;28;20064;-75
2022/08/18 12:25:48;;;;;;;3.28;2.78;;;;;;;;;;5025815;28;20029;-76
2022/08/18 12:28:14;;;;;;;3.25;2.53;;;;;;;;;;5024589;28;20028;-77
2022/08/18 12:30:39;;;;;;;5.18;2.50;;;;;;;;;;5023870;28;20025;-76
2022/08/18 12:33:04;;;;;;;1.95;1.85;;;;;;;;;;5023869;28;21268;-75
2022/08/18 12:35:30;;;;;;;2.72;2.53;;;;;;;;;;5022480;28;20456;-75
2022/08/18 12:37:55;;;;;;;2.20;2.00;;;;;;;;;;5024153;28;21005;-75
2022/08/18 12:40:21;;;;;;;2.60;1.98;;;;;;;;;;5022842;28;20036;-75
2022/08/18 12:42:48;;;;;;;2.50;2.25;;;;;;;;;;5022816;28;20049;-76
2022/08/18 12:45:13;;;;;;;1.92;1.83;;;;;;;;;;5024018;28;20441;-76
2022/08/18 12:47:39;;;;;;;2.58;2.38;;;;;;;;;;5023501;28;20092;-77
2022/08/18 12:50:06;;;;;;;2.47;2.17;;;;;;;;;;5024078;28;20025;-75
2022/08/18 12:52:31;;;;;;;5.15;2.03;;;;;;;;;;5024973;28;20146;-75
2022/08/18 12:54:57;;;;;;;2.00;1.80;;;;;;;;;;5022919;28;20440;-75
2022/08/18 12:57:24;;;;;;;2.45;2.03;;;;;;;;;;5024409;28;20033;-77
2022/08/18 12:59:50;;;;;;;3.78;2.05;;;;;;;;;;5024479;28;20095;-75
2022/08/18 13:02:15;;;;;;;2.83;2.05;;;;;;;;;;5021442;28;20037;-76
2022/08/18 13:04:41;;;;;;;2.17;2.08;;;;;;;;;;5023846;28;20067;-76
2022/08/18 13:07:06;;;;;;;2.50;2.17;;;;;;;;;;5024395;28;20043;-75
2022/08/18 13:09:33;;;;;;;2.50;2.30;;;;;;;;;;5024219;28;20022;-75
2022/08/18 13:11:58;;;;;;;2.40;2.20;;;;;;;;;;5021839;28;20044;-77
2022/08/18 13:14:24;;;;;;;5.72;1.83;;;;;;;;;;5024686;28;20038;-76
2022/08/18 13:16:50;;;;;;;3.13;2.58;;;;;;;;;;5024867;28;20029;-75
2022/08/18 13:19:16;;;;;;;2.70;2.08;;;;;;;;;;5022431;28;20433;-75
2022/08/18 13:21:41;;;;;;;2.30;2.10;;;;;;;;;;5022365;28;20030;-77
2022/08/18 13:24:06;;;;;;;3.55;1.98;;;;;;;;;;5023612;28;20494;-74
2022/08/18 13:26:35;;;;;;;1.98;1.80;;;;;;;;;;5023233;28;20025;-74
2022/08/18 13:29:01;;;;;;;2.10;1.90;;;;;;;;;;5006708;28;20037;-75
2022/08/18 13:31:27;;;;;;;3.00;2.15;;;;;;;;;;5023020;28;20771;-74
2022/08/18 13:33:52;;;;;;;2.53;2.33;;;;;;;;;;5022872;28;20033;-76
2022/08/18 13:36:18;;;;;;;2.30;1.98;;;;;;;;;;5026199;28;20474;-77
2022/08/18 13:38:43;;;;;;;4.18;2.03;;;;;;;;;;5027007;28;21254;-76
2022/08/18 13:41:09;;;;;;;2.40;2.08;;;;;;;;;;5027858;28;20065;-74
2022/08/18 13:43:40;;;;;;;1.85;1.63;;;;;;;;;;5027820;28;20060;-75
2022/08/18 13:46:06;;;;;;;3.45;2.40;;;;;;;;;;5027765;28;20036;-75
2022/08/18 13:48:32;;;;;;;2.03;1.92;;;;;;;;;;5026964;28;20071;-75
2022/08/18 13:50:58;;;;;;;2.30;2.20;;;;;;;;;;5027197;28;20029;-73
2022/08/18 13:53:25;;;;;;;2.17;2.00;;;;;;;;;;5026976;28;20048;-74
2022/08/18 13:55:50;;;;;;;8.75;2.80;;;;;;;;;;5026170;28;20080;-74
2022/08/18 13:58:16;;;;;;;3.17;2.72;;;;;;;;;;5028730;28;20502;-74
2022/08/18 14:00:41;;;;;;;3.10;1.80;;;;;;;;;;5026634;28;20040;-75
2022/08/18 14:03:07;;;;;;;2.40;2.20;;;;;;;;;;5025906;28;20348;-75
2022/08/18 14:05:33;;;;;;;3.75;2.08;;;;;;;;;;5026338;28;20037;-77
2022/08/18 14:07:59;;;;;;;2.25;2.10;;;;;;;;;;5026667;28;20440;-74
2022/08/18 14:10:24;;;;;;;2.53;1.90;;;;;;;;;;5027029;28;20025;-77
2022/08/18 14:12:51;;;;;;;3.00;2.75;;;;;;;;;;5028995;28;20040;-76
2022/08/18 14:15:16;;;;;;;2.50;2.30;;;;;;;;;;5027077;28;20044;-75
2022/08/18 14:17:42;;;;;;;3.00;2.42;;;;;;;;;;5027035;28;20026;-75
2022/08/18 14:28:20;;;;;;;3.20;2.08;;;;;;;;;;5024220;28;20103;-75
2022/08/18 14:30:46;;;;;;;2.20;2.00;;;;;;;;;;5024742;28;20425;-76
2022/08/18 14:33:13;;;;;;;1.63;1.52;;;;;;;;;;5008352;28;20083;-77
2022/08/18 14:35:39;;;;;;;1.80;1.70;;;;;;;;;;5026331;28;20155;-74
2022/08/18 14:38:05;;;;;;;4.43;2.35;;;;;;;;;;5026030;28;20466;-76
2022/08/18 14:40:32;;;;;;;2.95;2.33;;;;;;;;;;5024817;28;20356;-76
2022/08/18 14:42:57;;;;;;;2.70;2.47;;;;;;;;;;5026985;28;20025;-76
2022/08/18 14:45:24;;;;;;;3.00;2.30;;;;;;;;;;5026976;28;21088;-74
2022/08/18 14:47:52;;;;;;;2.80;2.05;;;;;;;;;;5024022;28;20116;-74
2022/08/18 14:50:18;;;;;;;2.10;1.80;;;;;;;;;;5025663;28;20063;-76
2022/08/18 14:52:44;;;;;;;1.88;1.67;;;;;;;;;;5023758;28;20017;-75
2022/08/18 14:55:10;;;;;;;1.80;1.70;;;;;;;;;;5024829;28;20468;-74
2022/08/18 14:57:36;;;;;;;1.98;1.80;;;;;;;;;;5026311;28;20037;-76
2022/08/18 15:00:03;;;;;;;1.83;1.50;;;;;;;;;;5024457;28;20056;-75
2022/08/18 15:02:28;;;;;;;1.55;1.45;;;;;;;;;;5025116;28;20440;-76
2022/08/18 15:04:53;;;;;;;2.05;1.95;;;;;;;;;;5025642;28;20021;-74
2022/08/18 15:07:18;;;;;;;2.13;1.73;;;;;;;;;;5026690;28;20045;-74
2022/08/18 15:09:44;;;;;;;2.97;2.30;;;;;;;;;;5023389;28;20425;-75
2022/08/18 15:12:09;;;;;;;2.67;2.10;;;;;;;;;;5025278;28;20465;-75
2022/08/18 15:14:36;;;;;;;2.47;1.98;;;;;;;;;;5026015;28;20475;-75
2022/08/18 15:17:02;;;;;;;2.22;1.70;;;;;;;;;;5025144;28;20044;-74